Terminal Aerodrome Forecast
Issued by NWS

Home | Current Version | Previous Version | Text Only | Print | Product List | Glossary On
Versions: 1 2 3 4 5 6 7 8 9 10 11 12 13 14 15 16 17
081
FTPA31 PHFO 230529
TAFHTO
TAF
PHTO 230529Z 2306/2406 24005KT P6SM SCT025 BKN060
     FM232000 03011KT P6SM SCT030 BKN060
     FM240500 24005KT P6SM SCT025 BKN060=

USA.gov is the U.S. government's official web portal to all federal, state and local government web resources and services.